Time;durP1;ratioP1;P1;durP2;ratioP2;P2;SDS_P1;SDS_P2;PMS_P1;PMS_P2;Temp;Humidity;BMP_temperature;BMP_pressure;BME280_temperature;BME280_humidity;BME280_pressure;Samples;Min_cycle;Max_cycle;Signal;HPM_P1;HPM_P2
2022/08/05 00:00:14;;;;;;;1.17;0.80;;;;;;;;;;5035568;27;83539;-53
2022/08/05 00:02:43;;;;;;;1.67;0.70;;;;;;;;;;5043970;27;83708;-53
2022/08/05 00:05:19;;;;;;;6.40;1.33;;;;;;;;;;5039527;27;82020;-54
2022/08/05 00:08:09;;;;;;;1.67;0.70;;;;;;;;;;5043651;27;82396;-52
2022/08/05 00:10:57;;;;;;;4.70;0.90;;;;;;;;;;5043696;27;83699;-53
2022/08/05 00:13:28;;;;;;;2.17;0.50;;;;;;;;;;5043872;27;83866;-53
2022/08/05 00:16:07;;;;;;;2.50;0.80;;;;;;;;;;5043995;27;82049;-53
2022/08/05 00:18:35;;;;;;;1.03;0.67;;;;;;;;;;5043995;27;83029;-53
2022/08/05 00:21:05;;;;;;;4.60;0.77;;;;;;;;;;5044202;27;83069;-54
2022/08/05 00:23:36;;;;;;;0.90;0.60;;;;;;;;;;5044485;27;83831;-53
2022/08/05 00:26:14;;;;;;;0.90;0.60;;;;;;;;;;5044401;27;81974;-53
2022/08/05 00:28:43;;;;;;;1.43;0.80;;;;;;;;;;5044705;27;84002;-53
2022/08/05 00:31:13;;;;;;;1.80;1.00;;;;;;;;;;5043064;27;83060;-53
2022/08/05 00:33:41;;;;;;;3.20;0.80;;;;;;;;;;5043901;27;82810;-53
2022/08/05 00:36:29;;;;;;;4.53;0.97;;;;;;;;;;5043678;27;82906;-53
2022/08/05 00:39:19;;;;;;;2.20;0.80;;;;;;;;;;5042208;28;82404;-53
2022/08/05 00:41:51;;;;;;;2.10;1.07;;;;;;;;;;5043212;27;83008;-53
2022/08/05 00:44:23;;;;;;;3.23;0.90;;;;;;;;;;5043837;27;83926;-53
2022/08/05 00:46:58;;;;;;;1.87;1.07;;;;;;;;;;5044328;27;81984;-53
2022/08/05 00:49:32;;;;;;;1.13;1.00;;;;;;;;;;5043733;28;83959;-53
2022/08/05 00:52:19;;;;;;;1.20;0.80;;;;;;;;;;5043820;27;81817;-53
2022/08/05 00:54:57;;;;;;;2.03;1.00;;;;;;;;;;5044223;27;82797;-53
2022/08/05 00:57:25;;;;;;;1.43;0.83;;;;;;;;;;5044114;27;81910;-53
2022/08/05 01:00:06;;;;;;;1.13;0.70;;;;;;;;;;5043754;27;82779;-53
2022/08/05 01:02:38;;;;;;;1.50;0.70;;;;;;;;;;5044287;27;83938;-53
2022/08/05 01:05:06;;;;;;;3.10;1.00;;;;;;;;;;5043442;27;83743;-53
2022/08/05 01:07:37;;;;;;;3.40;0.90;;;;;;;;;;5043080;27;82490;-52
2022/08/05 01:10:28;;;;;;;1.67;1.10;;;;;;;;;;5046925;27;82345;-53
2022/08/05 01:12:57;;;;;;;4.70;2.20;;;;;;;;;;5046907;27;84250;-53
2022/08/05 01:15:47;;;;;;;7.13;4.63;;;;;;;;;;5047092;27;81842;-53
2022/08/05 01:18:16;;;;;;;15.17;9.40;;;;;;;;;;5047232;27;81864;-53
2022/08/05 01:20:48;;;;;;;20.30;12.07;;;;;;;;;;5046988;28;83987;-53
2022/08/05 01:23:20;;;;;;;21.87;12.30;;;;;;;;;;5045627;27;83225;-53
2022/08/05 01:25:56;;;;;;;15.53;10.30;;;;;;;;;;5045746;27;83207;-53
2022/08/05 01:28:34;;;;;;;13.40;8.60;;;;;;;;;;5045263;27;82870;-52
2022/08/05 01:31:02;;;;;;;9.83;6.03;;;;;;;;;;5046580;27;82940;-53
2022/08/05 01:33:33;;;;;;;5.43;4.30;;;;;;;;;;5046120;27;83108;-53
2022/08/05 01:36:04;;;;;;;4.50;3.20;;;;;;;;;;5046274;28;83459;-53
2022/08/05 01:38:39;;;;;;;3.93;2.33;;;;;;;;;;5046491;27;81890;-52
2022/08/05 01:41:08;;;;;;;2.20;1.90;;;;;;;;;;5046979;27;84193;-53
2022/08/05 01:43:38;;;;;;;3.80;2.00;;;;;;;;;;5046716;27;83034;-53
2022/08/05 01:46:08;;;;;;;4.37;1.70;;;;;;;;;;5046519;27;84193;-53
2022/08/05 01:48:56;;;;;;;2.53;1.83;;;;;;;;;;5046948;27;82119;-53
2022/08/05 01:51:24;;;;;;;2.23;1.23;;;;;;;;;;5046560;27;82939;-53
2022/08/05 01:53:57;;;;;;;3.00;1.33;;;;;;;;;;5045657;27;82951;-53
2022/08/05 01:56:27;;;;;;;2.17;1.20;;;;;;;;;;5045835;27;82426;-53
2022/08/05 01:59:17;;;;;;;0.90;0.90;;;;;;;;;;5045820;27;81792;-53
2022/08/05 02:01:46;;;;;;;1.17;1.00;;;;;;;;;;5045733;27;84024;-53
2022/08/05 02:04:16;;;;;;;0.77;0.77;;;;;;;;;;5046343;27;83006;-53
2022/08/05 02:06:44;;;;;;;2.47;0.73;;;;;;;;;;5054173;27;82814;-53
2022/08/05 02:09:14;;;;;;;1.63;0.83;;;;;;;;;;5050638;27;82557;-53
2022/08/05 02:11:48;;;;;;;5.57;1.20;;;;;;;;;;5049566;27;83930;-53
2022/08/05 02:14:22;;;;;;;2.33;0.80;;;;;;;;;;5049850;27;83021;-53
2022/08/05 02:16:52;;;;;;;2.30;1.20;;;;;;;;;;5044595;27;83795;-53
2022/08/05 02:19:21;;;;;;;4.27;1.47;;;;;;;;;;5042037;28;82934;-54
2022/08/05 02:21:50;;;;;;;1.57;1.30;;;;;;;;;;5043546;27;82775;-53
2022/08/05 02:24:19;;;;;;;4.13;1.10;;;;;;;;;;5045468;27;83985;-53
2022/08/05 02:26:51;;;;;;;2.57;1.07;;;;;;;;;;5045900;27;84122;-53
2022/08/05 02:29:24;;;;;;;3.53;1.67;;;;;;;;;;5045969;28;81929;-53
2022/08/05 02:32:12;;;;;;;6.77;1.27;;;;;;;;;;5061923;27;82545;-53
2022/08/05 02:34:56;;;;;;;2.00;1.50;;;;;;;;;;5066156;27;82759;-53
2022/08/05 02:37:24;;;;;;;3.83;1.40;;;;;;;;;;5066353;27;83792;-53
2022/08/05 02:39:53;;;;;;;3.40;1.33;;;;;;;;;;5064508;27;82297;-53
2022/08/05 02:42:21;;;;;;;1.63;1.03;;;;;;;;;;5065810;27;82727;-53
2022/08/05 02:44:56;;;;;;;1.17;0.93;;;;;;;;;;5063396;27;83836;-53
2022/08/05 02:47:24;;;;;;;0.60;0.60;;;;;;;;;;5045486;27;84791;-53
2022/08/05 02:50:13;;;;;;;1.10;0.60;;;;;;;;;;5066225;27;81882;-53
2022/08/05 02:52:45;;;;;;;2.20;1.07;;;;;;;;;;5066112;27;83986;-53
2022/08/05 02:55:13;;;;;;;1.10;0.97;;;;;;;;;;5065971;27;83131;-53
2022/08/05 02:58:01;;;;;;;2.17;1.07;;;;;;;;;;5065901;27;82349;-53
2022/08/05 03:00:41;;;;;;;2.60;1.30;;;;;;;;;;5065822;27;81923;-53
2022/08/05 03:03:13;;;;;;;1.47;1.10;;;;;;;;;;5066249;27;82871;-53
2022/08/05 03:05:43;;;;;;;1.13;0.93;;;;;;;;;;5065513;27;83150;-53
2022/08/05 03:08:32;;;;;;;1.37;1.20;;;;;;;;;;5065128;27;85448;-53
2022/08/05 03:11:00;;;;;;;2.27;1.63;;;;;;;;;;5064438;27;82890;-53
2022/08/05 03:13:49;;;;;;;2.20;1.40;;;;;;;;;;5042279;28;82415;-53
2022/08/05 03:16:31;;;;;;;2.63;1.70;;;;;;;;;;5042908;27;83074;-53
2022/08/05 03:19:02;;;;;;;2.90;1.60;;;;;;;;;;5044542;27;82588;-53
2022/08/05 03:21:44;;;;;;;2.07;1.40;;;;;;;;;;5045607;27;82054;-53
2022/08/05 03:24:17;;;;;;;2.40;1.40;;;;;;;;;;5044198;27;82862;-53
2022/08/05 03:26:57;;;;;;;2.33;1.80;;;;;;;;;;5037918;27;83612;-53
2022/08/05 03:29:25;;;;;;;2.97;1.60;;;;;;;;;;5035136;28;83950;-53
2022/08/05 03:32:15;;;;;;;2.70;1.63;;;;;;;;;;5034026;28;83906;-53
2022/08/05 03:34:44;;;;;;;3.33;1.47;;;;;;;;;;5039418;27;83626;-53
2022/08/05 03:37:18;;;;;;;4.57;1.40;;;;;;;;;;5043391;28;84917;-52
2022/08/05 03:39:53;;;;;;;4.30;1.77;;;;;;;;;;5043992;27;83849;-53
2022/08/05 03:42:28;;;;;;;2.20;1.50;;;;;;;;;;5044788;27;82148;-53
2022/08/05 03:45:09;;;;;;;1.77;1.50;;;;;;;;;;5043930;27;82757;-54
2022/08/05 03:47:51;;;;;;;2.63;1.30;;;;;;;;;;5044312;27;82935;-53
2022/08/05 03:50:24;;;;;;;2.63;1.40;;;;;;;;;;5044245;27;82715;-53
2022/08/05 03:52:54;;;;;;;2.27;1.50;;;;;;;;;;5044025;27;82172;-53
2022/08/05 03:55:45;;;;;;;1.57;1.30;;;;;;;;;;5045101;27;84959;-53
2022/08/05 03:58:33;;;;;;;1.00;0.90;;;;;;;;;;5044120;27;82961;-53
2022/08/05 04:01:02;;;;;;;0.97;0.97;;;;;;;;;;5044162;27;82798;-54
2022/08/05 04:03:34;;;;;;;1.57;0.80;;;;;;;;;;5043526;27;82719;-53
2022/08/05 04:06:05;;;;;;;2.77;1.07;;;;;;;;;;5044464;27;83635;-53
2022/08/05 04:08:36;;;;;;;1.20;1.10;;;;;;;;;;5044085;27;82863;-53
2022/08/05 04:11:06;;;;;;;4.77;1.87;;;;;;;;;;5044381;27;82440;-53
2022/08/05 04:13:35;;;;;;;4.70;1.80;;;;;;;;;;5033111;28;81941;-55
2022/08/05 04:16:20;;;;;;;2.00;1.80;;;;;;;;;;5044410;27;83015;-54
2022/08/05 04:19:01;;;;;;;3.97;1.90;;;;;;;;;;5044069;27;84314;-53
2022/08/05 04:21:37;;;;;;;2.27;1.90;;;;;;;;;;5044286;27;82762;-53
2022/08/05 04:24:26;;;;;;;3.20;2.17;;;;;;;;;;5044256;27;81848;-53
2022/08/05 04:26:54;;;;;;;2.57;2.00;;;;;;;;;;5038442;27;83128;-53
2022/08/05 04:29:25;;;;;;;4.37;2.30;;;;;;;;;;5038016;28;84512;-53
2022/08/05 04:31:54;;;;;;;5.77;2.50;;;;;;;;;;5039948;28;83815;-52
2022/08/05 04:34:25;;;;;;;5.33;2.50;;;;;;;;;;5043444;27;81842;-53
2022/08/05 04:37:01;;;;;;;3.20;2.70;;;;;;;;;;5043628;27;81961;-53
2022/08/05 04:39:30;;;;;;;3.90;2.97;;;;;;;;;;5043466;27;82981;-53
2022/08/05 04:41:59;;;;;;;3.23;2.73;;;;;;;;;;5043198;27;83881;-53
2022/08/05 04:44:30;;;;;;;5.33;3.60;;;;;;;;;;5043304;27;81917;-52
2022/08/05 04:46:59;;;;;;;5.73;2.80;;;;;;;;;;5044241;27;82807;-52
2022/08/05 04:49:38;;;;;;;6.93;3.90;;;;;;;;;;5043646;27;83082;-54
2022/08/05 04:52:27;;;;;;;4.57;3.27;;;;;;;;;;5043014;27;82068;-52
2022/08/05 04:54:55;;;;;;;5.43;3.33;;;;;;;;;;5043246;27;82711;-53
2022/08/05 04:57:25;;;;;;;4.83;3.03;;;;;;;;;;5043422;28;82624;-52
2022/08/05 04:59:57;;;;;;;3.50;2.83;;;;;;;;;;5043764;27;82917;-53
2022/08/05 05:02:26;;;;;;;3.30;2.63;;;;;;;;;;5042851;27;83808;-53
2022/08/05 05:05:10;;;;;;;6.43;3.03;;;;;;;;;;5042290;28;81863;-52
2022/08/05 05:07:53;;;;;;;5.67;2.83;;;;;;;;;;5043552;28;83886;-52
2022/08/05 05:10:28;;;;;;;4.67;2.87;;;;;;;;;;5042801;27;82983;-54
2022/08/05 05:12:57;;;;;;;5.07;2.67;;;;;;;;;;5043045;27;83200;-55
2022/08/05 05:15:25;;;;;;;4.97;2.67;;;;;;;;;;5043045;27;82046;-54
2022/08/05 05:18:14;;;;;;;4.43;3.67;;;;;;;;;;5043236;27;82366;-54
2022/08/05 05:21:01;;;;;;;5.53;3.03;;;;;;;;;;5042768;27;85102;-54
2022/08/05 05:23:31;;;;;;;4.80;3.13;;;;;;;;;;5043073;27;83850;-54
2022/08/05 05:26:19;;;;;;;6.07;3.70;;;;;;;;;;5043309;27;83573;-52
2022/08/05 05:28:59;;;;;;;4.93;2.97;;;;;;;;;;5043568;27;82854;-54
2022/08/05 05:31:29;;;;;;;4.50;2.97;;;;;;;;;;5042595;27;83360;-54
2022/08/05 05:33:57;;;;;;;4.37;2.60;;;;;;;;;;5043076;27;82270;-52
2022/08/05 05:36:31;;;;;;;4.87;2.23;;;;;;;;;;5042717;28;81840;-52
2022/08/05 05:39:02;;;;;;;3.23;2.73;;;;;;;;;;5043062;27;82726;-54
2022/08/05 05:41:31;;;;;;;4.90;3.10;;;;;;;;;;5042450;27;83028;-52
2022/08/05 05:44:08;;;;;;;5.50;2.93;;;;;;;;;;5042339;28;83646;-54
2022/08/05 05:46:57;;;;;;;6.43;3.43;;;;;;;;;;5042190;27;83838;-52
2022/08/05 05:49:31;;;;;;;5.47;3.63;;;;;;;;;;5027100;28;82777;-52
2022/08/05 05:52:01;;;;;;;9.73;3.97;;;;;;;;;;5043421;28;84126;-52
2022/08/05 05:54:34;;;;;;;9.10;4.60;;;;;;;;;;5042224;27;82746;-54
2022/08/05 05:57:19;;;;;;;9.77;5.23;;;;;;;;;;5046339;28;81723;-52
2022/08/05 05:59:47;;;;;;;9.07;4.80;;;;;;;;;;5045184;27;84150;-52
2022/08/05 06:02:16;;;;;;;11.33;5.40;;;;;;;;;;5045050;27;83119;-53
2022/08/05 06:05:05;;;;;;;11.70;5.67;;;;;;;;;;5040205;28;82604;-53
2022/08/05 06:07:45;;;;;;;9.10;5.80;;;;;;;;;;5046730;27;81985;-53
2022/08/05 06:10:29;;;;;;;8.07;4.50;;;;;;;;;;5046547;27;82832;-53
2022/08/05 06:13:04;;;;;;;8.93;4.70;;;;;;;;;;5045973;27;85071;-53
2022/08/05 06:15:33;;;;;;;9.17;5.13;;;;;;;;;;5046550;27;83441;-54
2022/08/05 06:18:21;;;;;;;10.40;5.80;;;;;;;;;;5046944;27;82549;-53
2022/08/05 06:20:58;;;;;;;8.43;4.40;;;;;;;;;;5046177;27;82016;-53
2022/08/05 06:23:28;;;;;;;8.27;4.40;;;;;;;;;;5045641;27;83227;-54
2022/08/05 06:26:11;;;;;;;9.50;5.10;;;;;;;;;;5045716;27;82765;-53
2022/08/05 06:28:52;;;;;;;7.97;3.87;;;;;;;;;;5045418;27;82476;-53
2022/08/05 06:31:20;;;;;;;8.43;4.70;;;;;;;;;;5044986;27;83950;-53
2022/08/05 06:33:49;;;;;;;6.90;3.87;;;;;;;;;;5046248;27;82912;-53
2022/08/05 06:36:35;;;;;;;8.77;4.70;;;;;;;;;;5046156;27;81897;-53
2022/08/05 06:39:25;;;;;;;14.27;4.67;;;;;;;;;;5044793;27;83511;-53
2022/08/05 06:41:55;;;;;;;7.10;3.83;;;;;;;;;;5044915;27;82934;-53
2022/08/05 06:44:26;;;;;;;7.30;3.90;;;;;;;;;;5045488;27;83030;-53
2022/08/05 06:46:54;;;;;;;5.30;4.00;;;;;;;;;;5045409;27;82915;-53
2022/08/05 06:49:23;;;;;;;4.53;2.90;;;;;;;;;;5043762;27;82531;-53
2022/08/05 06:52:11;;;;;;;5.20;3.33;;;;;;;;;;5045243;27;82679;-53
2022/08/05 06:55:01;;;;;;;5.43;3.30;;;;;;;;;;5044199;27;84838;-53
2022/08/05 06:57:29;;;;;;;5.33;3.37;;;;;;;;;;5043599;27;82704;-53
2022/08/05 07:00:18;;;;;;;5.83;3.47;;;;;;;;;;5045261;27;81962;-53
2022/08/05 07:02:52;;;;;;;5.30;2.80;;;;;;;;;;5043988;27;83848;-53
2022/08/05 07:05:21;;;;;;;6.00;3.17;;;;;;;;;;5037303;27;84009;-53
2022/08/05 07:08:05;;;;;;;4.53;2.60;;;;;;;;;;5035240;28;82443;-54
2022/08/05 07:10:39;;;;;;;5.13;2.80;;;;;;;;;;5040001;27;81831;-52
2022/08/05 07:19:32;;;;;;;4.47;2.67;;;;;;;;;;5044084;27;82556;-53
2022/08/05 07:22:21;;;;;;;4.47;2.47;;;;;;;;;;5044891;28;82063;-52
2022/08/05 07:24:57;;;;;;;6.03;2.73;;;;;;;;;;5045072;27;82681;-52
2022/08/05 07:27:27;;;;;;;4.77;2.70;;;;;;;;;;5044400;27;83205;-53
2022/08/05 07:30:15;;;;;;;4.20;2.50;;;;;;;;;;5044621;27;82512;-52
2022/08/05 07:32:57;;;;;;;4.40;2.63;;;;;;;;;;5044582;27;82804;-52
2022/08/05 07:35:26;;;;;;;4.80;2.40;;;;;;;;;;5045233;27;83808;-53
2022/08/05 07:38:14;;;;;;;5.10;2.47;;;;;;;;;;5045656;27;82678;-52
2022/08/05 07:41:01;;;;;;;2.73;1.97;;;;;;;;;;5045781;27;82773;-52
2022/08/05 07:43:51;;;;;;;3.50;1.90;;;;;;;;;;5045333;27;81801;-52
2022/08/05 07:46:23;;;;;;;3.20;2.00;;;;;;;;;;5045249;27;83765;-53
2022/08/05 07:48:53;;;;;;;4.57;2.07;;;;;;;;;;5045141;27;82991;-53
2022/08/05 07:51:32;;;;;;;3.83;1.87;;;;;;;;;;5045124;27;82808;-53
2022/08/05 07:54:08;;;;;;;1.63;1.20;;;;;;;;;;5044982;27;82004;-53
2022/08/05 07:56:37;;;;;;;6.43;2.23;;;;;;;;;;5044707;27;83866;-54
2022/08/05 07:59:27;;;;;;;2.30;2.00;;;;;;;;;;5043986;27;83810;-53
2022/08/05 08:02:07;;;;;;;4.97;1.90;;;;;;;;;;5043918;27;84970;-53
2022/08/05 08:04:45;;;;;;;2.30;1.83;;;;;;;;;;5044685;27;81987;-53
2022/08/05 08:07:13;;;;;;;1.70;1.30;;;;;;;;;;5044632;27;84041;-53
2022/08/05 08:09:49;;;;;;;3.10;2.13;;;;;;;;;;5044698;27;83980;-53
2022/08/05 08:12:19;;;;;;;5.87;1.73;;;;;;;;;;5044708;27;83853;-53
2022/08/05 08:15:09;;;;;;;2.57;1.83;;;;;;;;;;5044946;27;82022;-53
2022/08/05 08:17:43;;;;;;;3.93;2.30;;;;;;;;;;5045171;27;83080;-52
2022/08/05 08:20:20;;;;;;;6.33;2.70;;;;;;;;;;5044454;27;82270;-53
2022/08/05 08:23:08;;;;;;;5.87;3.00;;;;;;;;;;5039223;27;83514;-52
2022/08/05 08:25:56;;;;;;;6.00;2.83;;;;;;;;;;5043837;27;82869;-51
2022/08/05 08:28:30;;;;;;;4.43;2.60;;;;;;;;;;5044043;27;82801;-52
2022/08/05 08:31:10;;;;;;;6.20;2.97;;;;;;;;;;5046692;27;84009;-52
2022/08/05 08:33:44;;;;;;;5.37;2.57;;;;;;;;;;5051879;27;83801;-52
2022/08/05 08:36:14;;;;;;;4.23;2.87;;;;;;;;;;5052682;27;81989;-54
2022/08/05 08:39:02;;;;;;;4.23;2.03;;;;;;;;;;5053097;27;82186;-52
2022/08/05 08:41:32;;;;;;;5.00;2.63;;;;;;;;;;5052326;27;82220;-52
2022/08/05 08:44:21;;;;;;;8.00;2.87;;;;;;;;;;5053530;27;82381;-52
2022/08/05 08:47:10;;;;;;;3.47;2.13;;;;;;;;;;5050128;27;81795;-52
2022/08/05 08:49:59;;;;;;;7.23;2.87;;;;;;;;;;5052700;27;82672;-52
2022/08/05 08:52:50;;;;;;;3.83;2.10;;;;;;;;;;5048621;27;83341;-52
2022/08/05 08:55:20;;;;;;;4.83;2.50;;;;;;;;;;5057107;27;83987;-52
2022/08/05 08:58:09;;;;;;;9.97;3.47;;;;;;;;;;5064086;27;82554;-52
2022/08/05 09:00:40;;;;;;;9.30;3.83;;;;;;;;;;5064448;27;82917;-52
2022/08/05 09:03:11;;;;;;;9.07;3.77;;;;;;;;;;5064105;27;84037;-52
2022/08/05 09:05:43;;;;;;;11.57;4.90;;;;;;;;;;5064230;27;82844;-53
2022/08/05 09:08:31;;;;;;;8.73;4.77;;;;;;;;;;5064044;27;81710;-52
2022/08/05 09:11:00;;;;;;;8.37;4.13;;;;;;;;;;5064796;27;83972;-52
2022/08/05 09:13:28;;;;;;;8.67;3.83;;;;;;;;;;5063848;27;84089;-52
2022/08/05 09:16:17;;;;;;;7.97;3.70;;;;;;;;;;5063852;27;82443;-52
2022/08/05 09:18:47;;;;;;;8.37;4.10;;;;;;;;;;5063879;27;82815;-52
2022/08/05 09:21:15;;;;;;;7.13;3.27;;;;;;;;;;5064448;27;82776;-53
2022/08/05 09:24:04;;;;;;;5.70;3.07;;;;;;;;;;5064144;27;82754;-52
2022/08/05 09:26:33;;;;;;;8.93;3.70;;;;;;;;;;5064089;27;82752;-54
2022/08/05 09:29:04;;;;;;;4.30;2.37;;;;;;;;;;5063998;27;81842;-54
2022/08/05 09:31:36;;;;;;;11.47;3.63;;;;;;;;;;5065221;27;82711;-54
2022/08/05 09:34:26;;;;;;;6.73;3.33;;;;;;;;;;5067403;27;82648;-52
2022/08/05 09:36:54;;;;;;;7.23;3.37;;;;;;;;;;5067312;27;82838;-52
2022/08/05 09:39:28;;;;;;;7.80;3.60;;;;;;;;;;5067282;27;81993;-52
2022/08/05 09:42:14;;;;;;;6.07;3.10;;;;;;;;;;5066991;27;82729;-53
2022/08/05 09:44:51;;;;;;;6.97;2.83;;;;;;;;;;5066448;27;83949;-52
2022/08/05 09:47:25;;;;;;;6.43;3.13;;;;;;;;;;5067211;27;84596;-54
2022/08/05 09:50:15;;;;;;;4.93;2.73;;;;;;;;;;5067274;27;83304;-52
2022/08/05 09:53:04;;;;;;;4.10;2.30;;;;;;;;;;5067194;27;82239;-53
2022/08/05 09:55:35;;;;;;;4.30;2.40;;;;;;;;;;5067252;27;84423;-52
2022/08/05 09:58:24;;;;;;;5.53;2.53;;;;;;;;;;5067026;27;82653;-52
2022/08/05 10:00:58;;;;;;;4.37;2.07;;;;;;;;;;5065939;27;82016;-52
2022/08/05 10:03:27;;;;;;;4.90;2.60;;;;;;;;;;5054210;27;83238;-52
2022/08/05 10:06:18;;;;;;;5.83;2.23;;;;;;;;;;5053583;27;82573;-52
2022/08/05 10:08:48;;;;;;;6.20;2.20;;;;;;;;;;5054088;27;82736;-54
2022/08/05 10:11:21;;;;;;;6.77;2.37;;;;;;;;;;5053640;27;83030;-52
2022/08/05 10:13:50;;;;;;;4.03;2.73;;;;;;;;;;5052588;27;82396;-53
2022/08/05 10:16:28;;;;;;;4.57;2.23;;;;;;;;;;5054295;27;81970;-52
2022/08/05 10:18:57;;;;;;;2.60;1.80;;;;;;;;;;5053909;27;82449;-54
2022/08/05 10:21:27;;;;;;;4.37;1.87;;;;;;;;;;5054051;27;81964;-52
2022/08/05 10:24:07;;;;;;;3.80;2.23;;;;;;;;;;5056040;27;83853;-52
2022/08/05 10:26:38;;;;;;;3.17;1.80;;;;;;;;;;5054863;27;82142;-52
2022/08/05 10:29:19;;;;;;;2.87;2.00;;;;;;;;;;5053914;27;82831;-52
2022/08/05 10:32:07;;;;;;;2.33;1.83;;;;;;;;;;5064858;27;81983;-52
2022/08/05 10:34:57;;;;;;;2.67;1.60;;;;;;;;;;5065782;27;82247;-52
2022/08/05 10:37:30;;;;;;;2.33;1.53;;;;;;;;;;5065533;27;83937;-53
2022/08/05 10:40:15;;;;;;;3.13;1.60;;;;;;;;;;5066411;27;82362;-52
2022/08/05 10:42:45;;;;;;;3.27;1.60;;;;;;;;;;5065858;27;81880;-53
2022/08/05 10:45:14;;;;;;;4.43;1.93;;;;;;;;;;5065974;27;84064;-52
2022/08/05 10:47:57;;;;;;;3.90;1.63;;;;;;;;;;5066258;27;83023;-52
2022/08/05 10:50:57;;;;;;;1.83;1.40;;;;;;;;;;5066023;27;82599;-53
2022/08/05 10:53:38;;;;;;;1.83;1.10;;;;;;;;;;5066324;27;81957;-52
2022/08/05 10:56:13;;;;;;;2.73;1.37;;;;;;;;;;5066704;27;83755;-52
2022/08/05 10:59:06;;;;;;;1.93;1.23;;;;;;;;;;5065806;27;83122;-53
2022/08/05 11:02:06;;;;;;;1.10;0.80;;;;;;;;;;5064803;27;84845;-53
2022/08/05 11:04:43;;;;;;;2.07;1.33;;;;;;;;;;5065700;27;82600;-52
2022/08/05 11:07:14;;;;;;;1.20;1.10;;;;;;;;;;5065850;27;82955;-52
2022/08/05 11:09:45;;;;;;;2.07;1.20;;;;;;;;;;5066095;27;83184;-53
2022/08/05 11:12:43;;;;;;;1.47;1.10;;;;;;;;;;5065461;27;81825;-54
2022/08/05 11:15:18;;;;;;;1.57;1.10;;;;;;;;;;5043534;27;82377;-53
2022/08/05 11:17:48;;;;;;;1.97;1.10;;;;;;;;;;5065406;27;81846;-52
2022/08/05 11:20:37;;;;;;;2.70;1.30;;;;;;;;;;5065655;27;82025;-52
2022/08/05 11:23:30;;;;;;;1.93;1.30;;;;;;;;;;5065896;27;83829;-52
2022/08/05 11:26:03;;;;;;;1.87;1.13;;;;;;;;;;5065361;27;82009;-52
2022/08/05 11:28:44;;;;;;;1.20;1.10;;;;;;;;;;5065526;27;83057;-52
2022/08/05 11:31:26;;;;;;;2.27;1.07;;;;;;;;;;5064534;27;82893;-52
2022/08/05 11:34:14;;;;;;;2.27;0.97;;;;;;;;;;5065199;27;86403;-52
2022/08/05 11:36:53;;;;;;;1.87;1.00;;;;;;;;;;5065670;27;81791;-53
2022/08/05 11:39:39;;;;;;;1.20;1.00;;;;;;;;;;5065666;27;83995;-54
2022/08/05 11:42:17;;;;;;;1.97;0.97;;;;;;;;;;5065533;27;83918;-52
2022/08/05 11:44:45;;;;;;;1.37;0.97;;;;;;;;;;5065088;27;83916;-53
2022/08/05 11:47:21;;;;;;;1.30;0.80;;;;;;;;;;5065314;27;82107;-53
2022/08/05 11:50:10;;;;;;;1.47;0.90;;;;;;;;;;5065541;27;82389;-52
2022/08/05 11:52:41;;;;;;;1.10;0.90;;;;;;;;;;5064617;27;83191;-53
2022/08/05 11:55:11;;;;;;;0.70;0.70;;;;;;;;;;5065107;27;82783;-52
2022/08/05 11:57:45;;;;;;;0.87;0.50;;;;;;;;;;5056861;27;82725;-54
2022/08/05 12:00:33;;;;;;;1.27;0.90;;;;;;;;;;5053473;27;82614;-53
2022/08/05 12:03:19;;;;;;;1.60;1.00;;;;;;;;;;5053223;27;83921;-54
2022/08/05 12:06:00;;;;;;;1.87;1.27;;;;;;;;;;5024185;28;82883;-52
2022/08/05 12:08:28;;;;;;;2.20;1.10;;;;;;;;;;5032386;27;81956;-52
2022/08/05 12:11:00;;;;;;;1.10;1.00;;;;;;;;;;5024221;28;81956;-52
2022/08/05 12:13:34;;;;;;;2.60;1.00;;;;;;;;;;5024217;28;83112;-52
2022/08/05 12:16:18;;;;;;;1.13;0.80;;;;;;;;;;5024565;28;82392;-52
2022/08/05 12:18:46;;;;;;;1.47;1.03;;;;;;;;;;5025049;28;81972;-52
2022/08/05 12:21:21;;;;;;;3.40;1.30;;;;;;;;;;5024433;28;82929;-53
2022/08/05 12:23:54;;;;;;;1.80;1.43;;;;;;;;;;5023786;28;84245;-53
2022/08/05 12:26:22;;;;;;;2.80;1.40;;;;;;;;;;5024180;28;82654;-53
2022/08/05 12:28:52;;;;;;;1.77;1.10;;;;;;;;;;5024376;28;81866;-53
2022/08/05 12:31:21;;;;;;;2.93;1.50;;;;;;;;;;5023830;28;81897;-53
2022/08/05 12:34:01;;;;;;;2.13;1.40;;;;;;;;;;5024077;28;82029;-53
2022/08/05 12:36:30;;;;;;;3.03;2.10;;;;;;;;;;5024343;28;82818;-53
2022/08/05 12:38:58;;;;;;;2.97;2.00;;;;;;;;;;5024640;28;81749;-53
2022/08/05 12:41:30;;;;;;;3.23;2.17;;;;;;;;;;5024806;28;82660;-53
2022/08/05 12:44:04;;;;;;;3.93;2.33;;;;;;;;;;5024324;28;83023;-53
2022/08/05 12:46:39;;;;;;;3.67;2.40;;;;;;;;;;5024339;28;82759;-53
2022/08/05 12:49:13;;;;;;;4.83;2.63;;;;;;;;;;5023573;28;82925;-54
2022/08/05 12:51:45;;;;;;;4.40;2.93;;;;;;;;;;5023881;28;82061;-53
2022/08/05 12:54:34;;;;;;;6.30;3.27;;;;;;;;;;5023956;28;82658;-53
2022/08/05 12:57:02;;;;;;;6.80;3.70;;;;;;;;;;5023878;28;82938;-53
2022/08/05 12:59:44;;;;;;;8.03;3.83;;;;;;;;;;5023954;28;81857;-56
2022/08/05 13:02:33;;;;;;;6.97;3.73;;;;;;;;;;5023699;28;82541;-53
2022/08/05 13:05:01;;;;;;;8.07;4.00;;;;;;;;;;5025432;28;83200;-53
2022/08/05 13:07:30;;;;;;;8.60;4.07;;;;;;;;;;5027753;28;82503;-53
2022/08/05 13:10:18;;;;;;;6.77;4.20;;;;;;;;;;5027611;28;81852;-52
2022/08/05 13:12:47;;;;;;;6.93;4.00;;;;;;;;;;5027099;28;82401;-53
2022/08/05 13:15:30;;;;;;;8.27;4.27;;;;;;;;;;5026839;28;85020;-52
2022/08/05 13:18:17;;;;;;;10.87;4.43;;;;;;;;;;5027085;28;83709;-54
2022/08/05 13:20:47;;;;;;;6.77;3.53;;;;;;;;;;5026751;28;81694;-52
2022/08/05 13:23:17;;;;;;;5.07;3.57;;;;;;;;;;5026880;28;82669;-52
2022/08/05 13:25:50;;;;;;;9.23;3.67;;;;;;;;;;5025982;28;82974;-52
2022/08/05 13:28:27;;;;;;;5.90;3.20;;;;;;;;;;5026750;28;82987;-53
2022/08/05 13:30:57;;;;;;;6.43;3.50;;;;;;;;;;5026552;28;82002;-53
2022/08/05 13:33:26;;;;;;;4.27;2.53;;;;;;;;;;5026339;28;82938;-53
2022/08/05 13:36:14;;;;;;;4.83;2.70;;;;;;;;;;5026702;28;82698;-53
2022/08/05 13:38:43;;;;;;;6.50;3.00;;;;;;;;;;5027199;28;82828;-53
2022/08/05 13:41:19;;;;;;;5.83;3.27;;;;;;;;;;5026571;28;82909;-53
2022/08/05 13:43:52;;;;;;;4.23;2.27;;;;;;;;;;5026778;28;83017;-53
2022/08/05 13:46:23;;;;;;;4.93;2.63;;;;;;;;;;5026352;28;83057;-53
2022/08/05 13:49:12;;;;;;;4.50;2.53;;;;;;;;;;5026586;28;82509;-53
2022/08/05 13:51:41;;;;;;;3.43;2.47;;;;;;;;;;5026403;28;81833;-53
2022/08/05 13:54:13;;;;;;;4.33;2.53;;;;;;;;;;5026161;28;82769;-54
2022/08/05 13:56:43;;;;;;;4.90;2.10;;;;;;;;;;5026388;28;82904;-52
2022/08/05 13:59:18;;;;;;;3.20;2.07;;;;;;;;;;5026515;28;82862;-52
2022/08/05 14:01:53;;;;;;;6.53;2.87;;;;;;;;;;5025795;28;81885;-52
2022/08/05 14:07:18;;;;;;;4.50;2.30;;;;;;;;;;5026056;28;85791;-52
2022/08/05 14:10:06;;;;;;;3.50;1.97;;;;;;;;;;5025535;28;83444;-52
2022/08/05 14:12:35;;;;;;;4.93;2.10;;;;;;;;;;5026070;28;81807;-52
2022/08/05 14:15:04;;;;;;;4.07;2.30;;;;;;;;;;5033843;27;84088;-52
2022/08/05 14:17:54;;;;;;;3.73;1.87;;;;;;;;;;5047546;27;82610;-52
2022/08/05 14:20:28;;;;;;;3.87;1.90;;;;;;;;;;5062633;27;83794;-53
2022/08/05 14:22:56;;;;;;;3.03;2.37;;;;;;;;;;5063361;27;81738;-52
2022/08/05 14:25:25;;;;;;;3.47;2.30;;;;;;;;;;5051465;27;83857;-52
2022/08/05 14:27:57;;;;;;;3.33;1.90;;;;;;;;;;5048548;27;83007;-52
2022/08/05 14:30:25;;;;;;;2.00;1.70;;;;;;;;;;5055710;27;83621;-52
2022/08/05 14:32:57;;;;;;;3.60;2.40;;;;;;;;;;5058199;27;82639;-52
2022/08/05 14:35:26;;;;;;;3.33;1.90;;;;;;;;;;5065980;27;81757;-54
2022/08/05 14:38:14;;;;;;;3.57;2.23;;;;;;;;;;5066539;27;82282;-52
2022/08/05 14:41:01;;;;;;;2.87;1.90;;;;;;;;;;5065878;27;82736;-52
2022/08/05 14:43:34;;;;;;;3.23;1.97;;;;;;;;;;5066653;27;81960;-53
2022/08/05 14:46:22;;;;;;;3.37;1.93;;;;;;;;;;5065771;27;82010;-52
2022/08/05 14:48:58;;;;;;;3.07;2.03;;;;;;;;;;5065907;27;83254;-52
2022/08/05 14:51:30;;;;;;;5.23;1.83;;;;;;;;;;5066444;27;82600;-52
2022/08/05 14:53:58;;;;;;;1.53;1.27;;;;;;;;;;5066274;27;81746;-52
2022/08/05 14:56:47;;;;;;;4.90;1.97;;;;;;;;;;5066020;27;82579;-52
2022/08/05 14:59:15;;;;;;;4.00;2.37;;;;;;;;;;5065810;27;85006;-52
2022/08/05 15:01:43;;;;;;;4.90;2.37;;;;;;;;;;5065305;27;84805;-53
2022/08/05 15:04:18;;;;;;;4.73;2.17;;;;;;;;;;5065215;27;81785;-52
2022/08/05 15:06:49;;;;;;;6.70;3.03;;;;;;;;;;5065201;27;82792;-52
2022/08/05 15:09:17;;;;;;;4.07;2.60;;;;;;;;;;5065315;27;84011;-52
2022/08/05 15:12:06;;;;;;;6.10;3.10;;;;;;;;;;5065564;27;84840;-52
2022/08/05 15:14:36;;;;;;;5.53;3.70;;;;;;;;;;5065933;27;82103;-52
2022/08/05 15:17:17;;;;;;;5.73;3.27;;;;;;;;;;5066292;27;83668;-52
2022/08/05 15:20:08;;;;;;;5.80;3.17;;;;;;;;;;5065535;27;82682;-52
2022/08/05 15:22:46;;;;;;;5.87;2.97;;;;;;;;;;5066006;27;85264;-52
2022/08/05 15:25:21;;;;;;;5.13;3.10;;;;;;;;;;5065267;27;82734;-52
2022/08/05 15:27:50;;;;;;;5.43;2.47;;;;;;;;;;5064859;27;83800;-52
2022/08/05 15:30:19;;;;;;;4.33;2.67;;;;;;;;;;5064887;27;82611;-52
2022/08/05 15:32:49;;;;;;;4.53;2.20;;;;;;;;;;5064674;27;82918;-55
2022/08/05 15:35:19;;;;;;;5.73;2.13;;;;;;;;;;5065071;27;82035;-53
2022/08/05 15:37:49;;;;;;;4.27;2.60;;;;;;;;;;5065216;27;82456;-53
2022/08/05 15:40:37;;;;;;;5.17;2.13;;;;;;;;;;5062626;27;88062;-52
2022/08/05 15:43:25;;;;;;;6.27;2.60;;;;;;;;;;5062633;27;87258;-51
2022/08/05 15:45:54;;;;;;;6.33;2.60;;;;;;;;;;5062519;27;87006;-52